sensor_id;sensor_type;location;lat;lon;timestamp;P1;durP1;ratioP1;P2;durP2;ratioP2
78740;SDS011;68062;48.726;9.370;2023-07-20T00:00:57;2.73;;;2.40;;
78740;SDS011;68062;48.726;9.370;2023-07-20T00:03:24;3.87;;;2.47;;
78740;SDS011;68062;48.726;9.370;2023-07-20T00:05:51;3.83;;;2.67;;
78740;SDS011;68062;48.726;9.370;2023-07-20T00:08:18;3.10;;;2.10;;
78740;SDS011;68062;48.726;9.370;2023-07-20T00:10:45;3.20;;;2.40;;
78740;SDS011;68062;48.726;9.370;2023-07-20T00:13:13;5.87;;;2.43;;
78740;SDS011;68062;48.726;9.370;2023-07-20T00:15:41;2.10;;;1.90;;
78740;SDS011;68062;48.726;9.370;2023-07-20T00:18:08;3.37;;;2.10;;
78740;SDS011;68062;48.726;9.370;2023-07-20T00:20:34;3.50;;;2.30;;
78740;SDS011;68062;48.726;9.370;2023-07-20T00:23:01;3.50;;;2.60;;
78740;SDS011;68062;48.726;9.370;2023-07-20T00:25:28;2.53;;;2.30;;
78740;SDS011;68062;48.726;9.370;2023-07-20T00:27:55;4.30;;;2.40;;
78740;SDS011;68062;48.726;9.370;2023-07-20T00:30:23;2.27;;;1.90;;
78740;SDS011;68062;48.726;9.370;2023-07-20T00:32:50;4.07;;;2.30;;
78740;SDS011;68062;48.726;9.370;2023-07-20T00:35:17;2.90;;;2.70;;
78740;SDS011;68062;48.726;9.370;2023-07-20T00:37:44;4.97;;;2.60;;
78740;SDS011;68062;48.726;9.370;2023-07-20T00:40:11;3.73;;;2.57;;
78740;SDS011;68062;48.726;9.370;2023-07-20T00:42:38;3.27;;;2.00;;
78740;SDS011;68062;48.726;9.370;2023-07-20T00:45:06;4.70;;;2.80;;
78740;SDS011;68062;48.726;9.370;2023-07-20T00:47:34;2.80;;;1.90;;
78740;SDS011;68062;48.726;9.370;2023-07-20T00:50:01;3.90;;;1.97;;
78740;SDS011;68062;48.726;9.370;2023-07-20T00:52:31;2.27;;;2.10;;
78740;SDS011;68062;48.726;9.370;2023-07-20T00:54:58;2.70;;;2.30;;
78740;SDS011;68062;48.726;9.370;2023-07-20T00:57:24;2.40;;;2.00;;
78740;SDS011;68062;48.726;9.370;2023-07-20T00:59:51;2.37;;;2.20;;
78740;SDS011;68062;48.726;9.370;2023-07-20T01:02:19;2.97;;;1.90;;
78740;SDS011;68062;48.726;9.370;2023-07-20T01:04:47;2.80;;;1.97;;
78740;SDS011;68062;48.726;9.370;2023-07-20T01:07:17;2.53;;;2.33;;
78740;SDS011;68062;48.726;9.370;2023-07-20T01:09:52;2.50;;;2.10;;
78740;SDS011;68062;48.726;9.370;2023-07-20T01:12:30;2.87;;;2.27;;
78740;SDS011;68062;48.726;9.370;2023-07-20T01:15:02;3.80;;;2.20;;
78740;SDS011;68062;48.726;9.370;2023-07-20T01:17:30;4.70;;;2.20;;
78740;SDS011;68062;48.726;9.370;2023-07-20T01:19:58;2.73;;;2.40;;
78740;SDS011;68062;48.726;9.370;2023-07-20T01:22:37;2.30;;;2.10;;
78740;SDS011;68062;48.726;9.370;2023-07-20T01:31:44;3.83;;;2.00;;
78740;SDS011;68062;48.726;9.370;2023-07-20T01:34:14;4.50;;;2.57;;
78740;SDS011;68062;48.726;9.370;2023-07-20T01:36:44;2.40;;;2.20;;
78740;SDS011;68062;48.726;9.370;2023-07-20T01:39:13;3.07;;;2.23;;
78740;SDS011;68062;48.726;9.370;2023-07-20T01:41:40;3.90;;;2.60;;
78740;SDS011;68062;48.726;9.370;2023-07-20T01:44:08;3.90;;;2.47;;
78740;SDS011;68062;48.726;9.370;2023-07-20T01:46:36;3.47;;;2.03;;
78740;SDS011;68062;48.726;9.370;2023-07-20T01:49:04;2.57;;;2.20;;
78740;SDS011;68062;48.726;9.370;2023-07-20T01:51:31;4.17;;;2.50;;
78740;SDS011;68062;48.726;9.370;2023-07-20T01:53:58;2.20;;;2.00;;
78740;SDS011;68062;48.726;9.370;2023-07-20T01:56:25;2.97;;;2.77;;
78740;SDS011;68062;48.726;9.370;2023-07-20T01:58:52;4.00;;;2.77;;
78740;SDS011;68062;48.726;9.370;2023-07-20T02:01:19;4.60;;;2.70;;
78740;SDS011;68062;48.726;9.370;2023-07-20T02:03:49;3.00;;;2.60;;
78740;SDS011;68062;48.726;9.370;2023-07-20T02:06:17;3.20;;;2.23;;
78740;SDS011;68062;48.726;9.370;2023-07-20T02:08:44;2.70;;;2.50;;
78740;SDS011;68062;48.726;9.370;2023-07-20T02:11:11;3.07;;;2.30;;
78740;SDS011;68062;48.726;9.370;2023-07-20T02:13:38;3.03;;;2.20;;
78740;SDS011;68062;48.726;9.370;2023-07-20T02:16:04;2.63;;;2.33;;
78740;SDS011;68062;48.726;9.370;2023-07-20T02:18:31;3.67;;;2.40;;
78740;SDS011;68062;48.726;9.370;2023-07-20T02:20:59;5.13;;;2.50;;
78740;SDS011;68062;48.726;9.370;2023-07-20T02:23:27;3.20;;;2.07;;
78740;SDS011;68062;48.726;9.370;2023-07-20T02:25:54;3.20;;;2.60;;
78740;SDS011;68062;48.726;9.370;2023-07-20T02:28:21;2.80;;;2.00;;
78740;SDS011;68062;48.726;9.370;2023-07-20T02:30:49;4.07;;;2.40;;
78740;SDS011;68062;48.726;9.370;2023-07-20T02:33:15;3.70;;;3.13;;
78740;SDS011;68062;48.726;9.370;2023-07-20T02:35:42;4.70;;;2.53;;
78740;SDS011;68062;48.726;9.370;2023-07-20T02:38:09;2.83;;;2.37;;
78740;SDS011;68062;48.726;9.370;2023-07-20T02:40:38;3.57;;;2.60;;
78740;SDS011;68062;48.726;9.370;2023-07-20T02:43:04;2.73;;;2.63;;
78740;SDS011;68062;48.726;9.370;2023-07-20T02:45:31;4.10;;;2.60;;
78740;SDS011;68062;48.726;9.370;2023-07-20T02:47:58;3.17;;;3.07;;
78740;SDS011;68062;48.726;9.370;2023-07-20T02:50:25;3.57;;;2.77;;
78740;SDS011;68062;48.726;9.370;2023-07-20T02:52:51;3.10;;;2.17;;
78740;SDS011;68062;48.726;9.370;2023-07-20T02:55:18;3.67;;;2.57;;
78740;SDS011;68062;48.726;9.370;2023-07-20T02:57:46;5.93;;;2.77;;
78740;SDS011;68062;48.726;9.370;2023-07-20T03:00:14;5.03;;;2.77;;
78740;SDS011;68062;48.726;9.370;2023-07-20T03:02:41;3.80;;;3.53;;
78740;SDS011;68062;48.726;9.370;2023-07-20T03:05:09;3.60;;;2.60;;
78740;SDS011;68062;48.726;9.370;2023-07-20T03:07:36;5.00;;;2.40;;
78740;SDS011;68062;48.726;9.370;2023-07-20T03:10:03;2.60;;;2.47;;
78740;SDS011;68062;48.726;9.370;2023-07-20T03:12:32;2.87;;;2.67;;
78740;SDS011;68062;48.726;9.370;2023-07-20T03:15:02;6.17;;;3.20;;
78740;SDS011;68062;48.726;9.370;2023-07-20T03:17:28;3.23;;;3.03;;
78740;SDS011;68062;48.726;9.370;2023-07-20T03:19:55;3.47;;;2.90;;
78740;SDS011;68062;48.726;9.370;2023-07-20T03:22:22;5.00;;;2.67;;
78740;SDS011;68062;48.726;9.370;2023-07-20T03:24:49;4.87;;;2.70;;
78740;SDS011;68062;48.726;9.370;2023-07-20T03:27:17;5.57;;;3.83;;
78740;SDS011;68062;48.726;9.370;2023-07-20T03:29:44;3.73;;;2.80;;
78740;SDS011;68062;48.726;9.370;2023-07-20T03:32:12;6.67;;;3.23;;
78740;SDS011;68062;48.726;9.370;2023-07-20T03:34:39;4.03;;;3.00;;
78740;SDS011;68062;48.726;9.370;2023-07-20T03:37:07;3.33;;;2.63;;
78740;SDS011;68062;48.726;9.370;2023-07-20T03:39:33;3.97;;;3.03;;
78740;SDS011;68062;48.726;9.370;2023-07-20T03:42:00;2.93;;;2.77;;
78740;SDS011;68062;48.726;9.370;2023-07-20T03:44:27;7.17;;;4.03;;
78740;SDS011;68062;48.726;9.370;2023-07-20T03:46:54;4.20;;;3.40;;
78740;SDS011;68062;48.726;9.370;2023-07-20T03:49:23;6.17;;;2.93;;
78740;SDS011;68062;48.726;9.370;2023-07-20T03:51:49;3.77;;;2.90;;
78740;SDS011;68062;48.726;9.370;2023-07-20T03:54:16;4.40;;;3.10;;
78740;SDS011;68062;48.726;9.370;2023-07-20T03:56:44;5.07;;;2.70;;
78740;SDS011;68062;48.726;9.370;2023-07-20T03:59:11;6.13;;;3.07;;
78740;SDS011;68062;48.726;9.370;2023-07-20T04:01:38;3.83;;;2.73;;
78740;SDS011;68062;48.726;9.370;2023-07-20T04:04:06;4.43;;;2.73;;
78740;SDS011;68062;48.726;9.370;2023-07-20T04:06:35;3.53;;;2.53;;
78740;SDS011;68062;48.726;9.370;2023-07-20T04:09:02;3.17;;;2.60;;
78740;SDS011;68062;48.726;9.370;2023-07-20T04:11:30;4.80;;;3.20;;
78740;SDS011;68062;48.726;9.370;2023-07-20T04:13:57;5.83;;;2.97;;
78740;SDS011;68062;48.726;9.370;2023-07-20T04:16:24;2.87;;;2.77;;
78740;SDS011;68062;48.726;9.370;2023-07-20T04:18:51;5.90;;;2.63;;
78740;SDS011;68062;48.726;9.370;2023-07-20T04:21:18;2.87;;;2.67;;
78740;SDS011;68062;48.726;9.370;2023-07-20T04:23:46;5.37;;;3.70;;
78740;SDS011;68062;48.726;9.370;2023-07-20T04:26:13;6.43;;;2.87;;
78740;SDS011;68062;48.726;9.370;2023-07-20T04:28:41;5.77;;;3.47;;
78740;SDS011;68062;48.726;9.370;2023-07-20T04:31:10;5.20;;;3.57;;
78740;SDS011;68062;48.726;9.370;2023-07-20T04:33:37;3.90;;;3.00;;
78740;SDS011;68062;48.726;9.370;2023-07-20T04:36:05;3.30;;;2.93;;
78740;SDS011;68062;48.726;9.370;2023-07-20T04:38:34;4.30;;;2.80;;
78740;SDS011;68062;48.726;9.370;2023-07-20T04:41:11;2.90;;;2.50;;
78740;SDS011;68062;48.726;9.370;2023-07-20T04:43:41;3.23;;;2.67;;
78740;SDS011;68062;48.726;9.370;2023-07-20T04:46:09;4.30;;;2.77;;
78740;SDS011;68062;48.726;9.370;2023-07-20T04:48:37;4.03;;;2.83;;
78740;SDS011;68062;48.726;9.370;2023-07-20T04:51:04;4.80;;;3.40;;
78740;SDS011;68062;48.726;9.370;2023-07-20T04:53:32;4.23;;;3.20;;
78740;SDS011;68062;48.726;9.370;2023-07-20T04:55:59;6.43;;;3.73;;
78740;SDS011;68062;48.726;9.370;2023-07-20T04:58:28;3.83;;;3.30;;
78740;SDS011;68062;48.726;9.370;2023-07-20T05:00:54;5.20;;;2.80;;
78740;SDS011;68062;48.726;9.370;2023-07-20T05:03:22;3.73;;;2.83;;
78740;SDS011;68062;48.726;9.370;2023-07-20T05:05:49;4.80;;;3.40;;
78740;SDS011;68062;48.726;9.370;2023-07-20T05:08:16;6.30;;;3.43;;
78740;SDS011;68062;48.726;9.370;2023-07-20T05:10:43;4.70;;;2.73;;
78740;SDS011;68062;48.726;9.370;2023-07-20T05:13:10;2.80;;;2.60;;
78740;SDS011;68062;48.726;9.370;2023-07-20T05:15:38;5.43;;;3.83;;
78740;SDS011;68062;48.726;9.370;2023-07-20T05:18:08;4.30;;;2.87;;
78740;SDS011;68062;48.726;9.370;2023-07-20T05:20:35;3.77;;;2.83;;
78740;SDS011;68062;48.726;9.370;2023-07-20T05:23:02;7.27;;;4.17;;
78740;SDS011;68062;48.726;9.370;2023-07-20T05:25:29;3.87;;;3.43;;
78740;SDS011;68062;48.726;9.370;2023-07-20T05:27:56;7.20;;;5.43;;
78740;SDS011;68062;48.726;9.370;2023-07-20T05:30:23;5.00;;;4.40;;
78740;SDS011;68062;48.726;9.370;2023-07-20T05:32:51;3.43;;;3.10;;
78740;SDS011;68062;48.726;9.370;2023-07-20T05:35:19;3.23;;;2.83;;
78740;SDS011;68062;48.726;9.370;2023-07-20T05:37:47;6.70;;;3.40;;
78740;SDS011;68062;48.726;9.370;2023-07-20T05:40:14;5.37;;;3.17;;
78740;SDS011;68062;48.726;9.370;2023-07-20T05:42:44;3.23;;;2.50;;
78740;SDS011;68062;48.726;9.370;2023-07-20T05:45:13;3.73;;;2.60;;
78740;SDS011;68062;48.726;9.370;2023-07-20T05:47:41;9.17;;;4.23;;
78740;SDS011;68062;48.726;9.370;2023-07-20T05:50:10;5.53;;;3.13;;
78740;SDS011;68062;48.726;9.370;2023-07-20T05:52:36;4.00;;;2.80;;
78740;SDS011;68062;48.726;9.370;2023-07-20T05:55:04;2.93;;;2.60;;
78740;SDS011;68062;48.726;9.370;2023-07-20T05:57:32;3.37;;;2.87;;
78740;SDS011;68062;48.726;9.370;2023-07-20T05:59:59;3.93;;;3.33;;
78740;SDS011;68062;48.726;9.370;2023-07-20T06:02:26;10.47;;;4.13;;
78740;SDS011;68062;48.726;9.370;2023-07-20T06:04:53;4.20;;;2.80;;
78740;SDS011;68062;48.726;9.370;2023-07-20T06:07:21;3.40;;;2.23;;
78740;SDS011;68062;48.726;9.370;2023-07-20T06:09:48;3.27;;;2.70;;
78740;SDS011;68062;48.726;9.370;2023-07-20T06:12:15;3.30;;;2.53;;
78740;SDS011;68062;48.726;9.370;2023-07-20T06:14:41;2.73;;;2.53;;
78740;SDS011;68062;48.726;9.370;2023-07-20T06:17:08;5.63;;;2.67;;
78740;SDS011;68062;48.726;9.370;2023-07-20T06:19:35;4.30;;;3.20;;
78740;SDS011;68062;48.726;9.370;2023-07-20T06:22:02;3.83;;;2.90;;
78740;SDS011;68062;48.726;9.370;2023-07-20T06:24:30;5.73;;;2.63;;
78740;SDS011;68062;48.726;9.370;2023-07-20T06:26:57;4.63;;;2.60;;
78740;SDS011;68062;48.726;9.370;2023-07-20T06:29:24;2.80;;;2.67;;
78740;SDS011;68062;48.726;9.370;2023-07-20T06:31:51;4.03;;;2.67;;
78740;SDS011;68062;48.726;9.370;2023-07-20T06:34:18;3.63;;;3.10;;
78740;SDS011;68062;48.726;9.370;2023-07-20T06:36:45;3.97;;;2.70;;
78740;SDS011;68062;48.726;9.370;2023-07-20T06:39:12;4.00;;;2.63;;
78740;SDS011;68062;48.726;9.370;2023-07-20T06:41:41;3.23;;;2.70;;
78740;SDS011;68062;48.726;9.370;2023-07-20T06:44:08;3.53;;;2.40;;
78740;SDS011;68062;48.726;9.370;2023-07-20T06:46:35;3.73;;;2.40;;
78740;SDS011;68062;48.726;9.370;2023-07-20T06:49:05;6.23;;;2.73;;
78740;SDS011;68062;48.726;9.370;2023-07-20T06:51:32;3.03;;;2.30;;
78740;SDS011;68062;48.726;9.370;2023-07-20T06:53:59;2.80;;;2.10;;
78740;SDS011;68062;48.726;9.370;2023-07-20T06:56:26;4.40;;;2.73;;
78740;SDS011;68062;48.726;9.370;2023-07-20T06:58:54;6.23;;;2.10;;
78740;SDS011;68062;48.726;9.370;2023-07-20T07:01:21;3.40;;;2.43;;
78740;SDS011;68062;48.726;9.370;2023-07-20T07:03:48;3.70;;;2.43;;
78740;SDS011;68062;48.726;9.370;2023-07-20T07:06:15;5.23;;;2.50;;
78740;SDS011;68062;48.726;9.370;2023-07-20T07:08:41;3.20;;;2.30;;
78740;SDS011;68062;48.726;9.370;2023-07-20T07:11:10;2.33;;;2.20;;
78740;SDS011;68062;48.726;9.370;2023-07-20T07:13:37;2.07;;;1.93;;
78740;SDS011;68062;48.726;9.370;2023-07-20T07:16:05;2.53;;;2.27;;
78740;SDS011;68062;48.726;9.370;2023-07-20T07:18:32;2.90;;;2.23;;
78740;SDS011;68062;48.726;9.370;2023-07-20T07:20:59;3.77;;;2.00;;
78740;SDS011;68062;48.726;9.370;2023-07-20T07:23:26;3.53;;;2.50;;
78740;SDS011;68062;48.726;9.370;2023-07-20T07:25:53;6.07;;;2.20;;
78740;SDS011;68062;48.726;9.370;2023-07-20T07:28:20;5.90;;;2.90;;
78740;SDS011;68062;48.726;9.370;2023-07-20T07:30:46;4.37;;;2.13;;
78740;SDS011;68062;48.726;9.370;2023-07-20T07:33:14;2.50;;;1.87;;
78740;SDS011;68062;48.726;9.370;2023-07-20T07:35:41;3.10;;;2.10;;
78740;SDS011;68062;48.726;9.370;2023-07-20T07:38:08;3.40;;;2.00;;
78740;SDS011;68062;48.726;9.370;2023-07-20T07:40:34;3.90;;;2.30;;
78740;SDS011;68062;48.726;9.370;2023-07-20T07:43:01;2.47;;;2.27;;
78740;SDS011;68062;48.726;9.370;2023-07-20T07:45:29;7.70;;;2.50;;
78740;SDS011;68062;48.726;9.370;2023-07-20T07:47:56;2.80;;;1.90;;
78740;SDS011;68062;48.726;9.370;2023-07-20T07:50:24;3.43;;;2.37;;
78740;SDS011;68062;48.726;9.370;2023-07-20T07:52:52;2.30;;;2.10;;
78740;SDS011;68062;48.726;9.370;2023-07-20T07:55:19;6.63;;;3.00;;
78740;SDS011;68062;48.726;9.370;2023-07-20T07:57:46;3.83;;;2.20;;
78740;SDS011;68062;48.726;9.370;2023-07-20T08:00:13;4.87;;;2.60;;
78740;SDS011;68062;48.726;9.370;2023-07-20T08:02:44;4.73;;;2.40;;
78740;SDS011;68062;48.726;9.370;2023-07-20T08:05:12;3.93;;;2.80;;
78740;SDS011;68062;48.726;9.370;2023-07-20T08:07:40;4.87;;;3.27;;
78740;SDS011;68062;48.726;9.370;2023-07-20T08:10:07;4.40;;;2.57;;
78740;SDS011;68062;48.726;9.370;2023-07-20T08:12:35;5.30;;;2.30;;
78740;SDS011;68062;48.726;9.370;2023-07-20T08:15:02;3.70;;;2.30;;
78740;SDS011;68062;48.726;9.370;2023-07-20T08:17:30;4.57;;;1.93;;
78740;SDS011;68062;48.726;9.370;2023-07-20T08:19:56;4.07;;;2.43;;
78740;SDS011;68062;48.726;9.370;2023-07-20T08:22:23;3.90;;;2.80;;
78740;SDS011;68062;48.726;9.370;2023-07-20T08:24:52;4.20;;;2.20;;
78740;SDS011;68062;48.726;9.370;2023-07-20T08:27:18;3.43;;;2.93;;
78740;SDS011;68062;48.726;9.370;2023-07-20T08:29:45;3.00;;;2.70;;
78740;SDS011;68062;48.726;9.370;2023-07-20T08:32:12;2.60;;;2.40;;
78740;SDS011;68062;48.726;9.370;2023-07-20T08:34:41;3.30;;;2.53;;
78740;SDS011;68062;48.726;9.370;2023-07-20T08:37:08;4.60;;;2.70;;
78740;SDS011;68062;48.726;9.370;2023-07-20T08:39:36;3.17;;;2.20;;
78740;SDS011;68062;48.726;9.370;2023-07-20T08:42:05;3.73;;;2.27;;
78740;SDS011;68062;48.726;9.370;2023-07-20T08:44:33;2.73;;;2.20;;
78740;SDS011;68062;48.726;9.370;2023-07-20T08:47:00;4.23;;;2.30;;
78740;SDS011;68062;48.726;9.370;2023-07-20T08:49:29;2.60;;;2.13;;
78740;SDS011;68062;48.726;9.370;2023-07-20T08:51:57;4.97;;;2.20;;
78740;SDS011;68062;48.726;9.370;2023-07-20T08:54:26;4.20;;;3.17;;
78740;SDS011;68062;48.726;9.370;2023-07-20T08:56:58;2.23;;;2.07;;
78740;SDS011;68062;48.726;9.370;2023-07-20T08:59:30;2.97;;;1.93;;
78740;SDS011;68062;48.726;9.370;2023-07-20T09:01:57;3.00;;;2.27;;
78740;SDS011;68062;48.726;9.370;2023-07-20T09:04:25;2.40;;;2.03;;
78740;SDS011;68062;48.726;9.370;2023-07-20T09:06:51;8.00;;;2.40;;
78740;SDS011;68062;48.726;9.370;2023-07-20T09:09:18;3.60;;;2.20;;
78740;SDS011;68062;48.726;9.370;2023-07-20T09:11:47;2.27;;;2.07;;
78740;SDS011;68062;48.726;9.370;2023-07-20T09:14:15;1.93;;;1.70;;
78740;SDS011;68062;48.726;9.370;2023-07-20T09:16:49;3.50;;;2.17;;
78740;SDS011;68062;48.726;9.370;2023-07-20T09:19:18;5.00;;;2.33;;
78740;SDS011;68062;48.726;9.370;2023-07-20T09:21:46;3.67;;;2.67;;
78740;SDS011;68062;48.726;9.370;2023-07-20T09:24:14;3.50;;;2.63;;
78740;SDS011;68062;48.726;9.370;2023-07-20T09:26:42;2.87;;;2.70;;
78740;SDS011;68062;48.726;9.370;2023-07-20T09:29:09;3.20;;;2.83;;
78740;SDS011;68062;48.726;9.370;2023-07-20T09:31:36;3.13;;;2.60;;
78740;SDS011;68062;48.726;9.370;2023-07-20T09:34:05;4.20;;;2.70;;
78740;SDS011;68062;48.726;9.370;2023-07-20T09:36:35;5.13;;;2.47;;
78740;SDS011;68062;48.726;9.370;2023-07-20T09:39:03;2.30;;;2.10;;
78740;SDS011;68062;48.726;9.370;2023-07-20T09:41:30;2.63;;;2.23;;
78740;SDS011;68062;48.726;9.370;2023-07-20T09:44:07;2.60;;;2.07;;
78740;SDS011;68062;48.726;9.370;2023-07-20T09:46:42;4.40;;;1.90;;
78740;SDS011;68062;48.726;9.370;2023-07-20T09:49:11;3.10;;;2.00;;
78740;SDS011;68062;48.726;9.370;2023-07-20T09:51:38;3.53;;;2.43;;
78740;SDS011;68062;48.726;9.370;2023-07-20T09:54:07;3.73;;;2.40;;
78740;SDS011;68062;48.726;9.370;2023-07-20T09:56:34;2.87;;;2.43;;
78740;SDS011;68062;48.726;9.370;2023-07-20T09:59:02;3.53;;;1.90;;
78740;SDS011;68062;48.726;9.370;2023-07-20T10:01:29;2.20;;;1.90;;
78740;SDS011;68062;48.726;9.370;2023-07-20T10:03:57;3.97;;;2.30;;
78740;SDS011;68062;48.726;9.370;2023-07-20T10:06:28;2.67;;;2.40;;
78740;SDS011;68062;48.726;9.370;2023-07-20T10:09:00;2.47;;;2.23;;
78740;SDS011;68062;48.726;9.370;2023-07-20T10:11:32;3.00;;;2.07;;
78740;SDS011;68062;48.726;9.370;2023-07-20T10:14:03;3.53;;;2.53;;
78740;SDS011;68062;48.726;9.370;2023-07-20T10:16:32;4.03;;;2.60;;
78740;SDS011;68062;48.726;9.370;2023-07-20T10:19:04;3.43;;;2.37;;
78740;SDS011;68062;48.726;9.370;2023-07-20T10:21:35;3.27;;;2.23;;
78740;SDS011;68062;48.726;9.370;2023-07-20T10:24:07;3.20;;;2.43;;
78740;SDS011;68062;48.726;9.370;2023-07-20T10:26:36;2.33;;;2.13;;
78740;SDS011;68062;48.726;9.370;2023-07-20T10:29:03;3.53;;;2.10;;
78740;SDS011;68062;48.726;9.370;2023-07-20T10:31:31;2.30;;;2.00;;
78740;SDS011;68062;48.726;9.370;2023-07-20T10:33:59;3.10;;;1.90;;
78740;SDS011;68062;48.726;9.370;2023-07-20T10:36:27;1.87;;;1.83;;
78740;SDS011;68062;48.726;9.370;2023-07-20T10:38:55;3.20;;;2.30;;
78740;SDS011;68062;48.726;9.370;2023-07-20T10:41:27;2.17;;;2.00;;
78740;SDS011;68062;48.726;9.370;2023-07-20T10:43:59;2.00;;;1.90;;
78740;SDS011;68062;48.726;9.370;2023-07-20T10:46:34;3.10;;;2.13;;
78740;SDS011;68062;48.726;9.370;2023-07-20T10:49:08;3.30;;;1.80;;
78740;SDS011;68062;48.726;9.370;2023-07-20T10:51:39;3.37;;;2.10;;
78740;SDS011;68062;48.726;9.370;2023-07-20T10:54:09;4.43;;;2.47;;
78740;SDS011;68062;48.726;9.370;2023-07-20T10:56:56;1.80;;;1.60;;
78740;SDS011;68062;48.726;9.370;2023-07-20T10:59:35;2.00;;;1.67;;
78740;SDS011;68062;48.726;9.370;2023-07-20T11:02:05;4.00;;;2.30;;
78740;SDS011;68062;48.726;9.370;2023-07-20T11:04:37;2.40;;;2.27;;
78740;SDS011;68062;48.726;9.370;2023-07-20T11:07:05;2.37;;;2.17;;
78740;SDS011;68062;48.726;9.370;2023-07-20T11:09:35;3.03;;;2.17;;
78740;SDS011;68062;48.726;9.370;2023-07-20T11:12:08;2.97;;;1.87;;
78740;SDS011;68062;48.726;9.370;2023-07-20T11:14:40;2.27;;;2.07;;
78740;SDS011;68062;48.726;9.370;2023-07-20T11:17:11;3.07;;;2.00;;
78740;SDS011;68062;48.726;9.370;2023-07-20T11:19:38;2.17;;;1.83;;
78740;SDS011;68062;48.726;9.370;2023-07-20T11:22:06;3.40;;;1.90;;
78740;SDS011;68062;48.726;9.370;2023-07-20T11:24:37;2.50;;;2.27;;
78740;SDS011;68062;48.726;9.370;2023-07-20T11:27:05;3.10;;;1.90;;
78740;SDS011;68062;48.726;9.370;2023-07-20T11:29:34;4.93;;;2.30;;
78740;SDS011;68062;48.726;9.370;2023-07-20T11:32:01;2.60;;;1.93;;
78740;SDS011;68062;48.726;9.370;2023-07-20T11:34:30;1.80;;;1.77;;
78740;SDS011;68062;48.726;9.370;2023-07-20T11:36:57;5.20;;;2.60;;
78740;SDS011;68062;48.726;9.370;2023-07-20T11:39:24;2.50;;;1.97;;
78740;SDS011;68062;48.726;9.370;2023-07-20T11:41:53;3.63;;;2.13;;
78740;SDS011;68062;48.726;9.370;2023-07-20T11:44:22;1.67;;;1.47;;
78740;SDS011;68062;48.726;9.370;2023-07-20T11:46:59;1.70;;;1.50;;
78740;SDS011;68062;48.726;9.370;2023-07-20T11:49:26;2.30;;;1.43;;
78740;SDS011;68062;48.726;9.370;2023-07-20T11:51:53;1.50;;;1.40;;
78740;SDS011;68062;48.726;9.370;2023-07-20T11:54:20;2.63;;;2.20;;
78740;SDS011;68062;48.726;9.370;2023-07-20T11:56:47;2.17;;;1.70;;
78740;SDS011;68062;48.726;9.370;2023-07-20T11:59:18;3.13;;;1.80;;
78740;SDS011;68062;48.726;9.370;2023-07-20T12:01:45;2.80;;;1.93;;
78740;SDS011;68062;48.726;9.370;2023-07-20T12:04:12;2.47;;;2.30;;
78740;SDS011;68062;48.726;9.370;2023-07-20T12:06:39;2.27;;;2.07;;
78740;SDS011;68062;48.726;9.370;2023-07-20T12:09:05;3.97;;;2.23;;
78740;SDS011;68062;48.726;9.370;2023-07-20T12:11:33;1.60;;;1.60;;
78740;SDS011;68062;48.726;9.370;2023-07-20T12:14:01;2.50;;;1.83;;
78740;SDS011;68062;48.726;9.370;2023-07-20T12:16:30;3.97;;;2.33;;
78740;SDS011;68062;48.726;9.370;2023-07-20T12:19:01;2.40;;;1.60;;
78740;SDS011;68062;48.726;9.370;2023-07-20T12:21:29;3.33;;;2.63;;
78740;SDS011;68062;48.726;9.370;2023-07-20T12:23:55;3.20;;;1.67;;
78740;SDS011;68062;48.726;9.370;2023-07-20T12:26:24;3.30;;;1.70;;
78740;SDS011;68062;48.726;9.370;2023-07-20T12:28:51;2.43;;;2.07;;
78740;SDS011;68062;48.726;9.370;2023-07-20T12:31:18;2.30;;;1.63;;
78740;SDS011;68062;48.726;9.370;2023-07-20T12:33:48;2.50;;;1.40;;
78740;SDS011;68062;48.726;9.370;2023-07-20T12:36:15;2.20;;;1.70;;
78740;SDS011;68062;48.726;9.370;2023-07-20T12:38:42;3.53;;;1.80;;
78740;SDS011;68062;48.726;9.370;2023-07-20T12:41:09;1.80;;;1.70;;
78740;SDS011;68062;48.726;9.370;2023-07-20T12:43:39;2.50;;;1.40;;
78740;SDS011;68062;48.726;9.370;2023-07-20T12:46:06;2.13;;;1.47;;
78740;SDS011;68062;48.726;9.370;2023-07-20T12:48:33;1.27;;;1.20;;
78740;SDS011;68062;48.726;9.370;2023-07-20T12:51:01;2.80;;;1.87;;
78740;SDS011;68062;48.726;9.370;2023-07-20T12:53:29;2.63;;;1.57;;
78740;SDS011;68062;48.726;9.370;2023-07-20T12:55:56;4.17;;;1.90;;
78740;SDS011;68062;48.726;9.370;2023-07-20T12:58:22;2.33;;;2.03;;
78740;SDS011;68062;48.726;9.370;2023-07-20T13:00:50;2.20;;;1.83;;
78740;SDS011;68062;48.726;9.370;2023-07-20T13:03:17;1.93;;;1.50;;
78740;SDS011;68062;48.726;9.370;2023-07-20T13:05:44;1.90;;;1.07;;
78740;SDS011;68062;48.726;9.370;2023-07-20T13:08:13;2.60;;;1.23;;
78740;SDS011;68062;48.726;9.370;2023-07-20T13:10:40;1.90;;;1.80;;
78740;SDS011;68062;48.726;9.370;2023-07-20T13:13:07;1.87;;;1.80;;
78740;SDS011;68062;48.726;9.370;2023-07-20T13:15:40;2.07;;;1.80;;
78740;SDS011;68062;48.726;9.370;2023-07-20T13:18:08;1.87;;;1.77;;
78740;SDS011;68062;48.726;9.370;2023-07-20T13:20:34;2.00;;;1.43;;
78740;SDS011;68062;48.726;9.370;2023-07-20T13:23:01;2.00;;;1.40;;
78740;SDS011;68062;48.726;9.370;2023-07-20T13:25:29;2.30;;;1.57;;
78740;SDS011;68062;48.726;9.370;2023-07-20T13:27:56;2.37;;;1.20;;
78740;SDS011;68062;48.726;9.370;2023-07-20T13:30:23;1.43;;;1.40;;
78740;SDS011;68062;48.726;9.370;2023-07-20T13:32:50;3.13;;;1.73;;
78740;SDS011;68062;48.726;9.370;2023-07-20T13:35:17;2.20;;;1.90;;
78740;SDS011;68062;48.726;9.370;2023-07-20T13:37:44;1.23;;;1.20;;
78740;SDS011;68062;48.726;9.370;2023-07-20T13:40:11;2.47;;;1.40;;
78740;SDS011;68062;48.726;9.370;2023-07-20T13:42:40;2.30;;;1.80;;
78740;SDS011;68062;48.726;9.370;2023-07-20T13:45:07;2.03;;;1.70;;
78740;SDS011;68062;48.726;9.370;2023-07-20T13:47:34;2.10;;;1.70;;
78740;SDS011;68062;48.726;9.370;2023-07-20T13:50:01;1.87;;;1.57;;
78740;SDS011;68062;48.726;9.370;2023-07-20T13:52:28;2.20;;;1.60;;
78740;SDS011;68062;48.726;9.370;2023-07-20T13:54:54;2.17;;;1.50;;
78740;SDS011;68062;48.726;9.370;2023-07-20T13:57:21;2.30;;;1.67;;
78740;SDS011;68062;48.726;9.370;2023-07-20T13:59:50;2.00;;;1.90;;
78740;SDS011;68062;48.726;9.370;2023-07-20T14:02:16;2.70;;;1.70;;
78740;SDS011;68062;48.726;9.370;2023-07-20T14:04:43;1.70;;;1.60;;
78740;SDS011;68062;48.726;9.370;2023-07-20T14:07:09;2.40;;;1.47;;
78740;SDS011;68062;48.726;9.370;2023-07-20T14:09:36;3.30;;;1.30;;
78740;SDS011;68062;48.726;9.370;2023-07-20T14:12:03;3.33;;;1.60;;
78740;SDS011;68062;48.726;9.370;2023-07-20T14:14:30;1.67;;;1.60;;
78740;SDS011;68062;48.726;9.370;2023-07-20T14:20:06;2.40;;;1.43;;
78740;SDS011;68062;48.726;9.370;2023-07-20T14:22:33;2.40;;;1.60;;
78740;SDS011;68062;48.726;9.370;2023-07-20T14:25:00;2.73;;;1.30;;
78740;SDS011;68062;48.726;9.370;2023-07-20T14:27:26;2.77;;;1.57;;
78740;SDS011;68062;48.726;9.370;2023-07-20T14:29:53;1.60;;;1.50;;
78740;SDS011;68062;48.726;9.370;2023-07-20T14:32:21;1.60;;;1.60;;
78740;SDS011;68062;48.726;9.370;2023-07-20T14:34:48;1.53;;;1.43;;
78740;SDS011;68062;48.726;9.370;2023-07-20T14:37:16;4.33;;;1.30;;
78740;SDS011;68062;48.726;9.370;2023-07-20T14:39:43;2.00;;;1.70;;
78740;SDS011;68062;48.726;9.370;2023-07-20T14:42:10;1.53;;;1.40;;
78740;SDS011;68062;48.726;9.370;2023-07-20T14:44:37;2.50;;;1.60;;
78740;SDS011;68062;48.726;9.370;2023-07-20T14:47:04;2.80;;;1.60;;
78740;SDS011;68062;48.726;9.370;2023-07-20T14:49:31;3.27;;;1.60;;
78740;SDS011;68062;48.726;9.370;2023-07-20T14:51:58;2.17;;;1.70;;
78740;SDS011;68062;48.726;9.370;2023-07-20T14:54:26;2.80;;;1.80;;
78740;SDS011;68062;48.726;9.370;2023-07-20T14:56:53;2.90;;;1.43;;
78740;SDS011;68062;48.726;9.370;2023-07-20T14:59:19;1.50;;;1.40;;
78740;SDS011;68062;48.726;9.370;2023-07-20T15:01:47;1.30;;;1.20;;